Time;durP1;ratioP1;P1;durP2;ratioP2;P2;SDS_P1;SDS_P2;PMS_P1;PMS_P2;Temp;Humidity;BMP_temperature;BMP_pressure;BME280_temperature;BME280_humidity;BME280_pressure;Samples;Min_cycle;Max_cycle;Signal;HPM_P1;HPM_P2
2022/01/14 00:02:11;;;;;;;;;77.00;57.50;;;;;6.15;100.00;103495.47;5025692;28;45508;-82
2022/01/14 00:04:38;;;;;;;;;69.25;56.25;;;;;6.12;100.00;103479.69;5024022;28;45319;-83
2022/01/14 00:07:04;;;;;;;;;73.25;57.25;;;;;6.04;100.00;103482.38;5032760;28;45355;-82
2022/01/14 00:09:31;;;;;;;;;76.50;57.50;;;;;6.00;100.00;103477.63;5020246;28;45742;-82
2022/01/14 00:11:58;;;;;;;;;77.50;59.75;;;;;6.02;100.00;103480.34;5028024;28;46996;-82
2022/01/14 00:15:24;;;;;;;;;75.50;56.25;;;;;5.96;100.00;103474.53;5027306;28;45301;-83
2022/01/14 00:17:15;;;;;;;;;78.75;58.50;;;;;5.92;100.00;103468.16;5027027;28;46139;-83
2022/01/14 00:19:42;;;;;;;;;77.00;60.00;;;;;5.91;100.00;103468.91;5021788;28;45507;-82
2022/01/14 00:22:16;;;;;;;;;77.25;59.50;;;;;5.88;100.00;103472.03;5027380;28;46193;-81
2022/01/14 00:33:06;;;;;;;;;75.25;58.25;;;;;5.76;100.00;103472.41;5031817;28;45678;-83
2022/01/14 00:35:33;;;;;;;;;74.50;58.25;;;;;5.74;100.00;103475.72;5031764;28;45352;-83
2022/01/14 00:37:59;;;;;;;;;71.25;55.00;;;;;5.73;100.00;103481.59;4998187;28;45514;-81
2022/01/14 00:40:25;;;;;;;;;71.50;55.00;;;;;5.71;100.00;103472.84;5027274;28;45550;-80
2022/01/14 00:42:51;;;;;;;;;74.00;57.00;;;;;5.70;100.00;103475.22;5003461;28;45598;-82
2022/01/14 00:45:21;;;;;;;;;72.00;55.75;;;;;5.69;100.00;103466.59;5031911;28;45915;-82
2022/01/14 00:47:48;;;;;;;;;69.50;55.75;;;;;5.70;100.00;103471.00;5022092;28;45400;-81
2022/01/14 00:50:15;;;;;;;;;68.50;54.25;;;;;5.69;100.00;103456.31;5008543;28;45362;-82
2022/01/14 00:52:42;;;;;;;;;70.50;55.25;;;;;5.70;100.00;103463.28;5017066;28;45505;-82
2022/01/14 00:55:12;;;;;;;;;71.25;54.50;;;;;5.68;100.00;103464.78;5016147;28;45352;-79
2022/01/14 01:00:23;;;;;;;;;69.00;56.00;;;;;5.67;100.00;103462.97;5016207;28;45190;-80
2022/01/14 01:02:49;;;;;;;;;64.25;53.00;;;;;5.69;100.00;103463.09;5011999;28;47041;-83
2022/01/14 01:05:15;;;;;;;;;70.00;55.00;;;;;5.66;100.00;103458.56;5017662;28;45969;-83
2022/01/14 01:07:44;;;;;;;;;75.25;55.50;;;;;5.68;100.00;103458.72;5020932;28;45397;-83
2022/01/14 01:10:11;;;;;;;;;66.50;54.25;;;;;5.67;100.00;103460.38;5026770;28;45643;-83
2022/01/14 01:12:53;;;;;;;;;69.25;55.00;;;;;5.65;100.00;103454.16;5028637;28;45253;-82
2022/01/14 01:15:20;;;;;;;;;70.75;54.75;;;;;5.62;100.00;103460.63;5016979;28;45527;-83
2022/01/14 01:17:47;;;;;;;;;71.75;56.50;;;;;5.60;100.00;103459.56;5021352;28;45258;-83
2022/01/14 01:20:18;;;;;;;;;71.25;54.50;;;;;5.61;100.00;103456.25;5026576;28;45550;-82
2022/01/14 01:22:50;;;;;;;;;74.00;58.00;;;;;5.55;100.00;103448.78;5029474;28;46501;-82
2022/01/14 01:25:20;;;;;;;;;72.50;54.25;;;;;5.51;100.00;103454.31;5017540;28;45358;-83
2022/01/14 01:27:47;;;;;;;;;64.00;52.75;;;;;5.46;100.00;103451.25;5016556;28;45315;-82
2022/01/14 01:31:05;;;;;;;;;72.25;56.00;;;;;5.48;100.00;103454.91;5025181;28;45370;-83
2022/01/14 01:33:05;;;;;;;;;70.00;53.00;;;;;5.43;100.00;103448.38;5016054;28;45488;-82
2022/01/14 01:35:32;;;;;;;;;68.75;55.50;;;;;5.40;100.00;103448.03;5023921;28;45754;-83
2022/01/14 01:37:57;;;;;;;;;67.50;54.00;;;;;5.41;100.00;103445.63;5022894;28;45185;-82
2022/01/14 01:40:26;;;;;;;;;67.50;51.25;;;;;5.39;100.00;103449.72;5034902;28;45541;-82
2022/01/14 01:42:53;;;;;;;;;66.50;52.00;;;;;5.37;100.00;103455.41;5020242;28;46299;-83
2022/01/14 01:45:25;;;;;;;;;66.25;52.75;;;;;5.32;100.00;103452.34;5031114;28;45422;-82
2022/01/14 01:47:55;;;;;;;;;64.25;50.25;;;;;5.25;100.00;103462.69;5015493;28;45261;-83
2022/01/14 01:50:23;;;;;;;;;62.00;50.50;;;;;5.24;100.00;103458.31;5010341;28;45272;-82
2022/01/14 01:52:49;;;;;;;;;59.75;47.50;;;;;5.26;100.00;103456.81;5018997;28;45494;-82
2022/01/14 01:55:16;;;;;;;;;65.50;49.50;;;;;5.25;100.00;103455.88;5021741;28;46031;-82
2022/01/14 01:57:43;;;;;;;;;62.00;50.75;;;;;5.26;100.00;103455.16;5015617;28;45455;-82
2022/01/14 02:00:11;;;;;;;;;65.75;53.75;;;;;5.27;100.00;103445.81;5019262;28;45427;-81
2022/01/14 02:02:37;;;;;;;;;63.50;50.75;;;;;5.29;100.00;103443.38;5031645;28;47878;-82
2022/01/14 02:05:04;;;;;;;;;58.25;48.50;;;;;5.29;100.00;103435.69;5022590;28;45328;-81
2022/01/14 02:07:33;;;;;;;;;63.25;49.00;;;;;5.30;100.00;103434.94;5038117;28;45320;-82
2022/01/14 02:09:59;;;;;;;;;61.50;49.00;;;;;5.30;100.00;103433.28;5039070;28;45172;-82
2022/01/14 02:12:26;;;;;;;;;60.25;46.75;;;;;5.31;100.00;103436.75;5038276;28;45336;-82
2022/01/14 02:15:08;;;;;;;;;62.50;49.75;;;;;5.32;100.00;103439.50;5038598;28;45860;-83
2022/01/14 02:18:03;;;;;;;;;64.25;50.00;;;;;5.33;100.00;103435.28;5023546;28;45343;-82
2022/01/14 02:23:06;;;;;;;;;61.00;49.00;;;;;5.35;100.00;103433.75;5039544;28;45837;-80
2022/01/14 02:25:33;;;;;;;;;56.50;45.00;;;;;5.37;100.00;103434.84;5025520;28;45450;-82
2022/01/14 02:28:07;;;;;;;;;59.75;48.75;;;;;5.37;100.00;103429.72;5045206;28;45514;-82
2022/01/14 02:30:35;;;;;;;;;59.00;45.50;;;;;5.38;100.00;103426.41;5048565;28;45158;-83
2022/01/14 02:33:02;;;;;;;;;59.50;49.75;;;;;5.37;100.00;103425.50;5037731;28;45912;-83
2022/01/14 02:35:28;;;;;;;;;59.00;46.50;;;;;5.34;100.00;103419.13;5037799;28;45782;-83
2022/01/14 02:37:54;;;;;;;;;58.50;48.50;;;;;5.34;100.00;103416.56;5038197;28;45316;-83
2022/01/14 02:40:21;;;;;;;;;63.50;50.00;;;;;5.34;100.00;103407.19;5038275;28;45327;-83
2022/01/14 02:42:48;;;;;;;;;60.50;47.50;;;;;5.37;100.00;103409.16;5038123;28;45335;-84
2022/01/14 02:45:15;;;;;;;;;62.75;50.00;;;;;5.38;100.00;103409.34;5019379;28;45587;-82
2022/01/14 02:47:41;;;;;;;;;61.25;48.50;;;;;5.38;100.00;103411.91;5042414;28;45501;-82
2022/01/14 02:50:09;;;;;;;;;55.75;41.75;;;;;5.35;100.00;103409.00;5041793;28;45260;-81
2022/01/14 02:55:22;;;;;;;;;60.25;48.75;;;;;5.31;100.00;103416.22;5038010;28;45277;-82
2022/01/14 02:57:52;;;;;;;;;59.50;43.75;;;;;5.31;100.00;103418.78;5039231;28;45292;-84
2022/01/14 03:00:21;;;;;;;;;61.75;48.75;;;;;5.32;100.00;103415.47;5037958;28;45369;-83
2022/01/14 03:02:49;;;;;;;;;60.50;48.25;;;;;5.33;100.00;103401.88;5037256;28;46649;-82
2022/01/14 03:05:17;;;;;;;;;60.50;47.50;;;;;5.32;100.00;103397.50;5037107;28;46051;-84
2022/01/14 03:07:43;;;;;;;;;58.00;47.25;;;;;5.32;100.00;103388.13;5037643;28;45411;-84
2022/01/14 03:10:11;;;;;;;;;59.50;47.50;;;;;5.34;100.00;103385.72;5037798;28;45549;-84
2022/01/14 03:12:40;;;;;;;;;59.25;45.00;;;;;5.33;100.00;103384.81;5037809;28;45933;-81
2022/01/14 03:15:06;;;;;;;;;66.50;48.00;;;;;5.34;100.00;103386.63;5037654;28;45425;-82
2022/01/14 03:17:32;;;;;;;;;68.50;51.75;;;;;5.32;100.00;103387.22;5003929;28;45419;-81
2022/01/14 03:19:59;;;;;;;;;54.00;43.00;;;;;5.30;100.00;103381.00;5020138;28;45360;-83
2022/01/14 03:22:34;;;;;;;;;61.50;50.25;;;;;5.27;100.00;103386.72;5026044;28;46204;-83
2022/01/14 03:27:46;;;;;;;;;63.00;48.25;;;;;5.27;100.00;103379.91;5023696;28;45343;-84
2022/01/14 03:30:12;;;;;;;;;66.75;49.75;;;;;5.27;100.00;103379.00;5037179;28;45335;-83
2022/01/14 03:32:39;;;;;;;;;66.00;49.50;;;;;5.27;100.00;103376.44;5037649;28;46176;-81
2022/01/14 03:35:06;;;;;;;;;64.00;49.75;;;;;5.26;100.00;103372.94;5037360;28;45453;-83
2022/01/14 03:37:32;;;;;;;;;65.00;51.00;;;;;5.27;100.00;103376.44;5021027;28;45356;-83
2022/01/14 03:39:58;;;;;;;;;61.75;50.75;;;;;5.28;100.00;103370.56;5037571;28;45433;-84
2022/01/14 03:42:23;;;;;;;;;63.00;50.25;;;;;5.27;100.00;103371.31;5036620;28;46019;-83
2022/01/14 03:44:49;;;;;;;;;61.25;49.25;;;;;5.30;100.00;103386.13;5036996;28;45288;-84
2022/01/14 03:47:14;;;;;;;;;65.50;51.75;;;;;5.33;100.00;103379.66;5036394;28;45237;-83
2022/01/14 03:49:40;;;;;;;;;62.50;49.50;;;;;5.33;100.00;103384.81;5019586;28;45515;-83
2022/01/14 03:52:06;;;;;;;;;63.00;50.00;;;;;5.35;100.00;103378.19;5037266;28;45288;-84
2022/01/14 03:54:32;;;;;;;;;63.00;49.50;;;;;5.36;100.00;103373.94;5036850;28;45516;-85
2022/01/14 03:56:57;;;;;;;;;62.75;50.50;;;;;5.37;100.00;103375.75;5019275;28;45444;-84
2022/01/14 03:59:23;;;;;;;;;61.00;47.50;;;;;5.40;100.00;103370.97;5036878;28;45580;-84
2022/01/14 04:01:48;;;;;;;;;63.50;52.00;;;;;5.43;100.00;103366.16;5036758;28;46129;-84
2022/01/14 04:04:14;;;;;;;;;61.75;47.00;;;;;5.46;100.00;103357.88;5036211;28;45489;-82
2022/01/14 04:06:40;;;;;;;;;63.50;50.00;;;;;5.52;100.00;103367.13;5036359;28;45450;-84
2022/01/14 04:09:06;;;;;;;;;52.75;44.50;;;;;5.56;100.00;103369.28;5036862;28;45359;-82
2022/01/14 04:11:33;;;;;;;;;65.00;48.75;;;;;5.58;100.00;103374.59;5036269;28;46434;-83
2022/01/14 04:15:36;;;;;;;;;55.50;46.00;;;;;5.57;100.00;103365.94;5017884;28;45842;-82
2022/01/14 04:16:45;;;;;;;;;60.75;46.75;;;;;5.49;100.00;103363.34;5036453;28;45273;-85
2022/01/14 04:19:11;;;;;;;;;66.75;52.00;;;;;5.48;100.00;103361.50;5036132;28;45280;-85
2022/01/14 04:21:37;;;;;;;;;55.50;46.75;;;;;5.46;100.00;103358.75;5036809;28;45337;-85
2022/01/14 04:24:03;;;;;;;;;58.00;47.75;;;;;5.48;100.00;103364.09;5036970;28;45327;-82
2022/01/14 04:26:28;;;;;;;;;68.00;48.75;;;;;5.45;100.00;103362.09;5036320;28;45420;-84
2022/01/14 04:28:54;;;;;;;;;61.50;47.50;;;;;5.44;100.00;103365.41;5037457;28;45443;-84
2022/01/14 04:31:19;;;;;;;;;55.00;45.50;;;;;5.47;100.00;103357.13;5016760;28;46900;-84
2022/01/14 04:33:45;;;;;;;;;59.50;48.25;;;;;5.50;100.00;103365.16;5022016;28;45396;-84
2022/01/14 04:36:10;;;;;;;;;55.50;47.00;;;;;5.56;100.00;103352.94;5026873;28;45386;-84
2022/01/14 04:38:36;;;;;;;;;58.00;47.00;;;;;5.60;100.00;103355.13;5011551;28;45265;-84
2022/01/14 04:41:02;;;;;;;;;60.00;47.50;;;;;5.65;100.00;103347.88;5031267;28;45347;-82
2022/01/14 04:43:29;;;;;;;;;62.00;48.00;;;;;5.65;100.00;103343.66;5035700;28;45336;-81
2022/01/14 04:46:14;;;;;;;;;62.50;49.75;;;;;5.66;100.00;103339.44;5036066;28;45229;-82
2022/01/14 04:48:39;;;;;;;;;58.75;46.25;;;;;5.68;100.00;103341.41;5036330;28;45232;-84
2022/01/14 04:51:06;;;;;;;;;64.25;49.75;;;;;5.70;100.00;103341.56;5035915;28;45390;-82
2022/01/14 04:53:33;;;;;;;;;59.50;46.75;;;;;5.70;100.00;103339.91;5034964;28;45865;-83
2022/01/14 04:55:59;;;;;;;;;58.00;46.75;;;;;5.70;100.00;103334.78;5036494;28;45497;-80
2022/01/14 04:58:27;;;;;;;;;65.00;46.25;;;;;5.73;100.00;103340.22;5036689;28;45288;-83
2022/01/14 05:00:53;;;;;;;;;52.75;43.75;;;;;5.69;100.00;103335.53;5036053;28;45985;-83
2022/01/14 05:03:19;;;;;;;;;61.00;48.00;;;;;5.70;100.00;103328.69;5015366;28;46052;-83
2022/01/14 05:05:48;;;;;;;;;60.75;48.25;;;;;5.70;100.00;103334.78;5021733;28;45401;-83
2022/01/14 05:08:26;;;;;;;;;55.75;43.50;;;;;5.66;100.00;103330.03;5026372;28;45516;-84
2022/01/14 05:13:19;;;;;;;;;52.50;42.00;;;;;5.72;100.00;103322.97;5018908;28;45302;-81
2022/01/14 05:15:44;;;;;;;;;55.75;45.75;;;;;5.73;100.00;103316.19;5035739;28;45363;-83
2022/01/14 05:18:10;;;;;;;;;64.25;47.00;;;;;5.73;100.00;103314.50;5029890;28;45333;-82
2022/01/14 05:20:36;;;;;;;;;57.50;47.00;;;;;5.70;100.00;103316.78;5026968;28;48349;-79
2022/01/14 05:23:02;;;;;;;;;57.75;43.50;;;;;5.67;100.00;103315.56;5001476;28;45273;-79
2022/01/14 05:25:27;;;;;;;;;58.00;45.75;;;;;5.66;100.00;103318.88;5022144;28;46972;-80
2022/01/14 05:27:53;;;;;;;;;60.50;46.75;;;;;5.67;100.00;103318.13;5035702;28;45346;-79
2022/01/14 05:30:19;;;;;;;;;56.75;43.75;;;;;5.67;100.00;103329.31;5031923;28;45367;-81
2022/01/14 05:32:47;;;;;;;;;58.75;44.00;;;;;5.68;100.00;103338.84;5028217;28;45314;-82
2022/01/14 05:35:17;;;;;;;;;53.75;42.25;;;;;5.68;100.00;103332.78;5037677;28;45912;-80
2022/01/14 05:37:42;;;;;;;;;55.00;44.25;;;;;5.67;100.00;103336.13;5048588;28;45470;-81
2022/01/14 05:40:09;;;;;;;;;54.00;42.25;;;;;5.67;100.00;103331.88;5033033;28;45975;-77
2022/01/14 05:42:36;;;;;;;;;55.50;42.25;;;;;5.69;100.00;103340.66;5034441;28;46042;-81
2022/01/14 05:45:04;;;;;;;;;60.00;46.75;;;;;5.66;100.00;103339.44;5007983;28;45384;-82
2022/01/14 05:47:30;;;;;;;;;51.25;41.50;;;;;5.68;100.00;103340.47;5041821;28;45469;-81
2022/01/14 05:49:55;;;;;;;;;44.50;39.50;;;;;5.66;100.00;103340.31;5041768;28;45255;-82
2022/01/14 05:52:21;;;;;;;;;44.00;38.00;;;;;5.67;100.00;103341.25;5041372;28;45236;-82
2022/01/14 05:54:48;;;;;;;;;54.50;42.75;;;;;5.65;100.00;103328.22;5041939;28;45341;-80
2022/01/14 05:57:14;;;;;;;;;55.00;41.75;;;;;5.66;100.00;103334.28;5041615;28;45587;-82
2022/01/14 05:59:40;;;;;;;;;39.75;33.25;;;;;5.65;100.00;103330.78;5042230;28;45323;-82
2022/01/14 06:02:05;;;;;;;;;54.50;42.50;;;;;5.65;100.00;103332.47;5042217;28;45340;-83
2022/01/14 06:04:31;;;;;;;;;53.25;39.00;;;;;5.66;100.00;103337.75;5042010;28;45302;-84
2022/01/14 06:06:57;;;;;;;;;47.00;40.00;;;;;5.66;100.00;103335.19;5043159;28;45563;-83
2022/01/14 06:09:22;;;;;;;;;51.50;39.75;;;;;5.65;100.00;103337.59;5042405;28;46050;-82
2022/01/14 06:11:48;;;;;;;;;46.25;38.75;;;;;5.65;100.00;103324.75;5041890;28;45448;-83
2022/01/14 06:14:14;;;;;;;;;56.50;42.25;;;;;5.63;100.00;103321.09;5041809;28;45253;-83
2022/01/14 06:16:39;;;;;;;;;48.25;38.75;;;;;5.66;100.00;103324.00;5043043;28;45521;-82
2022/01/14 06:19:05;;;;;;;;;44.00;38.25;;;;;5.67;100.00;103324.16;5041686;28;46459;-82
2022/01/14 06:21:30;;;;;;;;;36.00;31.25;;;;;5.68;100.00;103333.69;5025635;28;45388;-83
2022/01/14 06:23:56;;;;;;;;;50.75;41.25;;;;;5.70;100.00;103337.34;5042046;28;45395;-83
2022/01/14 06:26:23;;;;;;;;;49.25;39.50;;;;;5.73;100.00;103334.19;5041812;28;45400;-83
2022/01/14 06:28:48;;;;;;;;;58.00;43.25;;;;;5.72;100.00;103329.78;5041651;28;45473;-82
2022/01/14 06:31:14;;;;;;;;;60.50;43.50;;;;;5.69;100.00;103339.72;5022262;28;45613;-82
2022/01/14 06:33:41;;;;;;;;;51.25;42.00;;;;;5.67;100.00;103333.53;5022939;28;45230;-83
2022/01/14 06:36:07;;;;;;;;;46.25;36.75;;;;;5.68;100.00;103337.91;5028482;28;45502;-85
2022/01/14 06:38:32;;;;;;;;;55.00;41.25;;;;;5.67;100.00;103338.69;5027455;28;45426;-81
2022/01/14 06:40:59;;;;;;;;;49.25;40.50;;;;;5.65;100.00;103335.03;5034700;28;45323;-83
2022/01/14 06:43:25;;;;;;;;;49.00;39.25;;;;;5.62;100.00;103334.69;5020668;28;45338;-84
2022/01/14 06:45:50;;;;;;;;;48.75;42.25;;;;;5.62;100.00;103334.69;5032904;28;45548;-82
2022/01/14 06:48:16;;;;;;;;;37.00;34.25;;;;;5.61;100.00;103326.09;5027950;28;45236;-82
2022/01/14 06:50:42;;;;;;;;;47.00;41.00;;;;;5.64;100.00;103328.06;5029145;28;45382;-83
2022/01/14 06:53:08;;;;;;;;;47.25;39.50;;;;;5.62;100.00;103327.00;5038143;28;45235;-82
2022/01/14 06:55:33;;;;;;;;;48.50;39.25;;;;;5.61;100.00;103330.31;5008623;28;45555;-83
2022/01/14 06:57:59;;;;;;;;;44.50;40.00;;;;;5.56;100.00;103315.31;5012093;28;46944;-83
2022/01/14 07:00:25;;;;;;;;;55.75;43.00;;;;;5.60;100.00;103316.56;5025444;28;45372;-77
2022/01/14 07:02:51;;;;;;;;;43.50;37.50;;;;;5.57;100.00;103322.25;5032827;28;45450;-77
2022/01/14 07:05:17;;;;;;;;;49.00;42.00;;;;;5.60;100.00;103324.28;5037152;28;45708;-78
2022/01/14 07:07:42;;;;;;;;;39.00;35.75;;;;;5.60;100.00;103334.56;5036667;28;46194;-77
2022/01/14 07:10:09;;;;;;;;;48.25;38.00;;;;;5.58;100.00;103330.91;5037158;28;45321;-78
2022/01/14 07:12:38;;;;;;;;;55.00;40.00;;;;;5.58;100.00;103330.91;5037748;28;45288;-79
2022/01/14 07:15:06;;;;;;;;;55.25;43.25;;;;;5.57;100.00;103321.38;5037847;28;45494;-79
2022/01/14 07:17:32;;;;;;;;;44.50;39.25;;;;;5.54;100.00;103319.41;5024618;28;45308;-84
2022/01/14 07:20:05;;;;;;;;;60.75;44.50;;;;;5.52;100.00;103313.19;5019551;28;45463;-82
2022/01/14 07:22:30;;;;;;;;;44.25;38.50;;;;;5.54;100.00;103311.69;5019650;28;45358;-78
2022/01/14 07:24:56;;;;;;;;;46.75;40.25;;;;;5.56;100.00;103315.31;5022635;28;45404;-81
2022/01/14 07:27:21;;;;;;;;;50.75;41.50;;;;;5.57;100.00;103309.41;5035624;28;45392;-81
2022/01/14 07:29:47;;;;;;;;;46.25;40.50;;;;;5.60;100.00;103313.06;5036321;28;45581;-88
2022/01/14 07:32:13;;;;;;;;;55.25;42.00;;;;;5.58;100.00;103312.91;5037720;28;45382;-77
2022/01/14 07:34:38;;;;;;;;;52.00;42.75;;;;;5.56;100.00;103319.53;5034633;28;45402;-79
2022/01/14 07:37:04;;;;;;;;;52.25;43.25;;;;;5.54;100.00;103315.91;5022244;28;46096;-79
2022/01/14 07:39:30;;;;;;;;;41.75;39.00;;;;;5.56;100.00;103322.13;5034271;28;45434;-80
2022/01/14 07:41:56;;;;;;;;;51.75;40.00;;;;;5.54;100.00;103321.97;5027878;28;45551;-78
2022/01/14 07:44:24;;;;;;;;;50.25;40.00;;;;;5.53;100.00;103315.00;5036690;28;45662;-81
2022/01/14 07:46:50;;;;;;;;;51.25;40.50;;;;;5.56;100.00;103312.72;5029706;28;46098;-83
2022/01/14 07:49:16;;;;;;;;;56.75;43.50;;;;;5.58;100.00;103323.19;5030047;28;45489;-80
2022/01/14 07:51:42;;;;;;;;;50.75;40.25;;;;;5.58;100.00;103318.06;5019866;28;45469;-80
2022/01/14 07:54:08;;;;;;;;;45.50;35.00;;;;;5.62;100.00;103334.69;5037871;28;45550;-79
2022/01/14 07:56:40;;;;;;;;;53.00;42.50;;;;;5.63;100.00;103331.38;5036692;28;45908;-81
2022/01/14 07:59:06;;;;;;;;;51.00;41.25;;;;;5.62;100.00;103333.03;5036873;28;46086;-80
2022/01/14 08:01:36;;;;;;;;;42.75;36.25;;;;;5.62;100.00;103324.41;5036543;28;45293;-81
2022/01/14 08:04:04;;;;;;;;;53.25;46.00;;;;;5.62;100.00;103327.88;5021640;28;45423;-77
2022/01/14 08:06:34;;;;;;;;;47.75;42.25;;;;;5.64;100.00;103330.66;5033264;28;46264;-79
2022/01/14 08:09:00;;;;;;;;;57.75;47.00;;;;;5.61;100.00;103328.66;5018636;28;45799;-79
2022/01/14 08:11:26;;;;;;;;;48.00;39.50;;;;;5.62;100.00;103335.59;5031679;28;45417;-79
2022/01/14 08:13:51;;;;;;;;;55.25;42.50;;;;;5.62;100.00;103327.00;5013456;28;45658;-79
2022/01/14 08:16:17;;;;;;;;;46.75;39.00;;;;;5.62;100.00;103340.75;5027958;28;45451;-90
2022/01/14 08:18:43;;;;;;;;;51.00;42.50;;;;;5.63;100.00;103339.09;5014994;28;45467;-85
2022/01/14 08:21:08;;;;;;;;;55.00;44.25;;;;;5.64;100.00;103340.91;5037123;28;45408;-83
2022/01/14 08:23:34;;;;;;;;;57.00;46.50;;;;;5.64;100.00;103339.25;5022991;28;45682;-91
2022/01/14 08:26:06;;;;;;;;;56.25;43.00;;;;;5.65;100.00;103341.06;5037071;28;45780;-84
2022/01/14 08:28:31;;;;;;;;;56.25;43.00;;;;;5.66;100.00;103342.91;5030916;28;45447;-86
2022/01/14 08:30:57;;;;;;;;;54.25;43.00;;;;;5.69;100.00;103347.44;5005432;28;45563;-83
2022/01/14 08:33:23;;;;;;;;;53.75;39.75;;;;;5.69;100.00;103337.16;5032144;28;45553;-80
2022/01/14 08:35:48;;;;;;;;;60.25;45.25;;;;;5.68;100.00;103343.97;5032366;28;46533;-79
2022/01/14 08:38:14;;;;;;;;;49.00;39.50;;;;;5.70;100.00;103345.06;5043888;28;45555;-82
2022/01/14 08:40:40;;;;;;;;;49.75;42.00;;;;;5.73;100.00;103345.34;5036257;28;45446;-80
2022/01/14 08:43:07;;;;;;;;;52.25;42.00;;;;;5.75;100.00;103345.53;5035367;28;45572;-79
2022/01/14 08:45:33;;;;;;;;;54.25;45.50;;;;;5.75;100.00;103342.97;5035520;28;46825;-79
2022/01/14 08:47:59;;;;;;;;;49.75;42.75;;;;;5.76;100.00;103349.94;5032465;28;45468;-78
2022/01/14 08:50:34;;;;;;;;;55.75;44.75;;;;;5.76;100.00;103349.94;5034332;28;45541;-80
2022/01/14 08:52:59;;;;;;;;;52.00;43.25;;;;;5.76;100.00;103347.38;5018622;28;46449;-79
2022/01/14 08:55:25;;;;;;;;;55.50;46.00;;;;;5.79;100.00;103346.78;5035603;28;46428;-79
2022/01/14 08:57:52;;;;;;;;;57.25;43.75;;;;;5.80;100.00;103343.44;5003188;28;45997;-79
2022/01/14 09:00:19;;;;;;;;;54.25;45.25;;;;;5.81;100.00;103347.84;5036645;28;45435;-80
2022/01/14 09:02:44;;;;;;;;;57.00;47.50;;;;;5.81;100.00;103346.16;5038643;28;45644;-77
2022/01/14 09:05:11;;;;;;;;;55.25;45.00;;;;;5.84;100.00;103341.34;5034437;28;46022;-83
2022/01/14 09:07:38;;;;;;;;;29.00;19.25;;;;;5.85;100.00;103338.03;5034794;28;45860;-79
2022/01/14 09:10:05;;;;;;;;;51.00;42.25;;;;;5.89;100.00;103339.28;5031244;28;45585;-79
2022/01/14 09:12:35;;;;;;;;;51.00;43.75;;;;;5.91;100.00;103342.00;5034675;28;45549;-81
2022/01/14 09:15:01;;;;;;;;;61.50;46.00;;;;;5.93;100.00;103326.00;5029019;28;45552;-82
2022/01/14 09:17:28;;;;;;;;;57.00;47.00;;;;;5.95;100.00;103323.56;5034980;28;45394;-82
2022/01/14 09:19:54;;;;;;;;;61.25;47.25;;;;;5.97;100.00;103343.53;5035094;28;45401;-83
2022/01/14 09:22:20;;;;;;;;;58.25;47.75;;;;;5.99;100.00;103330.88;5035701;28;45323;-84
2022/01/14 09:24:47;;;;;;;;;61.75;47.25;;;;;6.02;100.00;103332.13;5035648;28;45971;-83
2022/01/14 09:27:15;;;;;;;;;59.75;47.75;;;;;6.02;100.00;103326.06;5017294;28;45803;-82
2022/01/14 09:29:42;;;;;;;;;61.00;49.00;;;;;6.04;100.00;103332.28;5035879;28;45467;-79
2022/01/14 09:32:09;;;;;;;;;59.50;48.25;;;;;6.06;100.00;103328.22;5035995;28;45795;-77
2022/01/14 09:34:36;;;;;;;;;62.00;47.00;;;;;6.09;100.00;103327.59;5035579;28;45296;-78
2022/01/14 09:37:03;;;;;;;;;48.25;37.00;;;;;6.10;100.00;103338.03;5034952;28;45323;-78
2022/01/14 09:39:31;;;;;;;;;60.25;47.75;;;;;6.10;100.00;103322.59;5026369;28;45491;-77
2022/01/14 09:41:57;;;;;;;;;63.00;48.25;;;;;6.14;100.00;103334.16;5039635;28;45480;-77
2022/01/14 09:44:22;;;;;;;;;60.75;50.25;;;;;6.17;100.00;103330.22;5032871;28;45647;-77
2022/01/14 09:46:49;;;;;;;;;67.00;50.50;;;;;6.21;100.00;103331.44;5024653;28;45467;-75
2022/01/14 09:49:16;;;;;;;;;60.75;49.50;;;;;6.25;100.00;103327.53;5025333;28;45505;-75
2022/01/14 09:51:42;;;;;;;;;67.75;52.75;;;;;6.28;100.00;103336.47;5014475;28;45614;-79
2022/01/14 09:54:10;;;;;;;;;66.75;52.25;;;;;6.31;100.00;103331.66;5025090;28;46239;-80
2022/01/14 09:56:38;;;;;;;;;69.00;52.25;;;;;6.33;100.00;103330.16;5018461;28;45469;-77
2022/01/14 09:59:04;;;;;;;;;47.25;38.75;;;;;6.36;100.00;103329.53;5033260;28;45570;-80
2022/01/14 10:01:41;;;;;;;;;59.00;49.50;;;;;6.41;100.00;103335.16;5034225;28;45652;-81
2022/01/14 10:04:18;;;;;;;;;68.25;52.25;;;;;6.40;100.00;103331.69;5016055;28;46757;-81
2022/01/14 10:06:56;;;;;;;;;64.25;51.50;;;;;6.46;100.00;103341.72;5016949;28;45687;-82
2022/01/14 10:09:29;;;;;;;;;59.25;47.00;;;;;6.48;100.00;103341.09;5031991;28;45434;-80
2022/01/14 10:12:06;;;;;;;;;54.25;42.00;;;;;6.53;100.00;103335.53;5033033;28;45536;-77
2022/01/14 10:14:35;;;;;;;;;16.00;9.25;;;;;6.54;100.00;103340.81;5030307;28;47009;-79
2022/01/14 10:17:05;;;;;;;;;59.00;47.75;;;;;6.58;100.00;103342.03;5017302;28;45472;-79
2022/01/14 10:19:35;;;;;;;;;67.75;51.00;;;;;6.61;100.00;103332.97;5012746;28;45597;-76
2022/01/14 10:22:01;;;;;;;;;58.25;49.75;;;;;6.64;100.00;103332.38;5030696;28;45401;-77
2022/01/14 10:24:30;;;;;;;;;59.00;47.50;;;;;6.67;100.00;103337.81;5031726;28;46264;-77
2022/01/14 10:26:58;;;;;;;;;64.50;47.50;;;;;6.71;100.00;103329.66;5005686;28;45667;-78
2022/01/14 10:29:35;;;;;;;;;58.50;47.25;;;;;6.73;100.00;103338.47;5018506;28;45411;-78
2022/01/14 10:32:02;;;;;;;;;57.25;47.00;;;;;6.75;100.00;103336.03;5037563;28;45242;-79
2022/01/14 10:34:30;;;;;;;;;58.00;44.25;;;;;6.80;100.00;103340.00;5037362;28;46592;-79
2022/01/14 10:37:15;;;;;;;;;47.25;37.75;;;;;6.82;100.00;103329.09;5032160;28;46887;-79
2022/01/14 10:39:49;;;;;;;;;57.25;46.25;;;;;6.87;100.00;103334.69;5021793;28;45479;-78
2022/01/14 10:42:30;;;;;;;;;54.00;42.25;;;;;6.89;100.00;103327.13;5036140;28;45596;-78
2022/01/14 10:45:19;;;;;;;;;56.75;42.75;;;;;6.93;100.00;103329.25;5033220;28;46299;-76
2022/01/14 10:47:57;;;;;;;;;57.75;45.00;;;;;6.96;100.00;103325.31;5019774;28;45444;-78
2022/01/14 10:50:47;;;;;;;;;56.00;45.25;;;;;6.99;100.00;103316.97;5019945;28;45398;-77
2022/01/14 10:53:21;;;;;;;;;55.50;43.75;;;;;7.01;100.00;103310.31;5026422;28;45335;-77
2022/01/14 10:55:53;;;;;;;;;53.75;44.25;;;;;7.05;100.00;103309.88;5036547;28;46166;-76
2022/01/14 10:58:28;;;;;;;;;57.75;46.00;;;;;7.08;100.00;103299.84;5036681;28;45457;-78
2022/01/14 11:01:07;;;;;;;;;60.25;47.50;;;;;7.11;100.00;103297.59;5037272;28;45513;-77
2022/01/14 11:03:35;;;;;;;;;55.00;45.00;;;;;7.13;100.00;103296.09;5037190;28;45533;-77
2022/01/14 11:06:23;;;;;;;;;50.25;42.50;;;;;7.19;100.00;103295.78;5028760;28;45931;-77
2022/01/14 11:08:56;;;;;;;;;61.50;46.50;;;;;7.20;100.00;103297.59;5031231;28;45974;-79
2022/01/14 11:11:22;;;;;;;;;60.00;47.00;;;;;7.22;100.00;103300.31;5011298;28;45451;-77
2022/01/14 11:13:51;;;;;;;;;26.00;14.50;;;;;7.24;100.00;103297.13;5015315;28;45661;-80
2022/01/14 11:16:17;;;;;;;;;59.25;47.50;;;;;7.26;100.00;103292.16;5036133;28;45585;-78
2022/01/14 11:18:45;;;;;;;;;59.00;48.00;;;;;7.28;100.00;103286.38;5036020;28;45491;-81
2022/01/14 11:23:56;;;;;;;;;60.25;49.50;;;;;7.29;100.00;103274.38;5024693;28;45548;-79
2022/01/14 11:26:27;;;;;;;;;58.25;48.00;;;;;7.33;100.00;103275.63;5028055;28;45454;-79
2022/01/14 11:28:53;;;;;;;;;62.75;48.50;;;;;7.34;100.00;103273.19;5032303;28;45480;-90
2022/01/14 11:31:35;;;;;;;;;58.25;47.00;;;;;7.37;100.00;103270.91;5038154;28;45298;-84
2022/01/14 11:34:03;;;;;;;;;63.25;50.00;;;;;7.39;100.00;103269.41;5037748;28;45232;-79
2022/01/14 11:36:59;;;;;;;;;59.25;50.00;;;;;7.38;100.00;103259.84;5022655;28;46263;-81
2022/01/14 11:39:31;;;;;;;;;63.75;49.00;;;;;7.44;100.00;103272.44;5032775;28;45801;-81